South Sterling, Pennsylvania
Current Conditions -  °F | °C
As of 10:53 AM on Friday 28 Nov 2014 (Local Time) from KMPO Reporting Station
Light Snow Light Snow  
Wind Chill: 12°   Ceiling: 2600
Heat Index: 24°   Visibility: 9mi
Dew Point: 13°   Wind: 14mph
Humidity: 62%   Direction: 300°WNW
Pressure: 30.12"   Gusts: NA
Location:  41.26°N, 75.35°W
Report Text: KMPO 281553Z AUTO 30012KT 9SM -SN OVC026 M04/M11 A3012 RMK AO2 SNB50 SLP227 P0000 T10441106
Loading
Personal Weather Stations






























Interactive Weather Map New forecast layout! Learn more

10-Day Weather Forecast

Advertisements
Track Severe Weather on mobile